createdAt,value
2023-04-17T00:04:49.916Z,5.28
2023-04-17T00:09:52.784Z,5.22
2023-04-17T00:14:55.565Z,6.05
2023-04-17T00:19:58.471Z,5.00
2023-04-17T00:25:01.355Z,5.70
2023-04-17T00:30:05.504Z,5.03
2023-04-17T00:35:08.254Z,5.10
2023-04-17T00:40:11.732Z,5.80
2023-04-17T00:45:15.207Z,5.32
2023-04-17T00:50:18.681Z,4.65
2023-04-17T00:55:21.579Z,4.60
2023-04-17T01:00:24.992Z,4.57
2023-04-17T01:11:18.827Z,4.32
2023-04-17T01:16:21.775Z,4.45
2023-04-17T01:21:24.519Z,5.03
2023-04-17T01:26:28.009Z,4.82
2023-04-17T01:31:31.903Z,5.10
2023-04-17T01:36:34.797Z,4.93
2023-04-17T01:41:37.665Z,5.10
2023-04-17T01:46:41.005Z,5.65
2023-04-17T01:51:43.853Z,5.47
2023-04-17T01:56:46.585Z,6.25
2023-04-17T02:01:52.991Z,7.15
2023-04-17T02:06:55.746Z,6.50
2023-04-17T02:11:58.711Z,7.47
2023-04-17T02:17:01.943Z,8.00
2023-04-17T02:22:08.475Z,10.32
2023-04-17T02:27:11.263Z,11.52
2023-04-17T02:32:15.481Z,10.93
2023-04-17T02:37:18.322Z,11.93
2023-04-17T02:42:21.140Z,8.52
2023-04-17T02:47:24.173Z,8.00
2023-04-17T02:52:28.106Z,7.40
2023-04-17T02:57:30.843Z,7.97
2023-04-17T03:02:34.734Z,7.30
2023-04-17T03:07:37.690Z,9.65
2023-04-17T03:12:40.749Z,9.05
2023-04-17T03:17:43.461Z,10.93
2023-04-17T03:22:46.254Z,11.27
2023-04-17T03:27:51.048Z,10.70
2023-04-17T03:32:56.651Z,7.95
2023-04-17T03:37:59.479Z,7.28
2023-04-17T03:43:02.208Z,6.78
2023-04-17T03:48:07.640Z,5.82
2023-04-17T03:53:12.317Z,6.63
2023-04-17T03:58:15.860Z,10.57
2023-04-17T04:03:18.776Z,8.35
2023-04-17T04:08:24.075Z,7.40
2023-04-17T04:13:30.004Z,6.97
2023-04-17T04:18:36.693Z,6.65
2023-04-17T04:23:41.612Z,6.43
2023-04-17T04:28:47.674Z,7.50
2023-04-17T04:39:00.232Z,7.32
2023-04-17T04:44:08.407Z,6.45
2023-04-17T04:49:14.327Z,6.35
2023-04-17T04:54:17.145Z,5.93
2023-04-17T04:59:26.364Z,5.75
2023-04-17T05:04:42.315Z,4.95
2023-04-17T05:09:45.701Z,4.90
2023-04-17T05:14:49.639Z,3.65
2023-04-17T05:19:55.009Z,4.78
2023-04-17T05:24:59.050Z,4.28
2023-04-17T05:30:02.793Z,4.47
2023-04-17T05:35:08.200Z,4.30
2023-04-17T05:40:13.878Z,5.38
2023-04-17T05:53:01.079Z,2.70
2023-04-17T05:58:22.647Z,2.58
2023-04-17T06:03:29.468Z,4.47
2023-04-17T06:08:41.733Z,8.02
2023-04-17T06:13:44.701Z,2.72
2023-04-17T06:18:47.513Z,2.83
2023-04-17T06:23:52.360Z,3.70
2023-04-17T06:28:56.250Z,3.60
2023-04-17T06:34:01.617Z,3.55
2023-04-17T06:39:08.690Z,3.38
2023-04-17T06:45:15.574Z,3.20
2023-04-17T06:58:04.521Z,2.00
2023-04-17T07:03:07.272Z,2.42
2023-04-17T07:08:41.858Z,2.25
2023-04-17T07:13:47.264Z,2.10
2023-04-17T07:19:53.453Z,2.50
2023-04-17T07:32:57.055Z,1.52
2023-04-17T07:45:51.948Z,1.60
2023-04-17T07:50:54.641Z,1.80
2023-04-17T07:55:59.185Z,1.42
2023-04-17T08:09:15.072Z,1.90
2023-04-17T08:14:23.041Z,1.58
2023-04-17T08:21:13.620Z,1.58
2023-04-17T08:27:19.777Z,1.80
2023-04-17T08:33:20.897Z,1.80
2023-04-17T08:38:23.788Z,1.40
2023-04-17T08:43:29.366Z,1.70
2023-04-17T08:48:32.409Z,1.60
2023-04-17T08:53:35.668Z,1.48
2023-04-17T08:58:43.649Z,1.70
2023-04-17T09:03:49.683Z,1.80
2023-04-17T09:09:00.832Z,1.20
2023-04-17T09:14:05.379Z,1.63
2023-04-17T09:20:28.913Z,1.58
2023-04-17T09:25:40.176Z,1.83
2023-04-17T09:30:43.444Z,1.70
2023-04-17T09:35:48.702Z,1.23
2023-04-17T09:40:54.626Z,1.73
2023-04-17T09:52:26.298Z,1.02
2023-04-17T09:57:29.238Z,1.35
2023-04-17T10:02:33.234Z,1.60
2023-04-17T10:07:38.146Z,1.77
2023-04-17T10:12:41.411Z,2.20
2023-04-17T10:17:44.196Z,2.30
2023-04-17T10:22:56.760Z,2.85
2023-04-17T10:28:06.769Z,2.65
2023-04-17T10:33:22.225Z,2.20
2023-04-17T10:38:37.131Z,2.70
2023-04-17T10:43:45.012Z,2.17
2023-04-17T10:48:53.090Z,2.60
2023-04-17T10:54:00.372Z,2.15
2023-04-17T10:59:07.872Z,1.60
2023-04-17T11:04:19.703Z,2.22
2023-04-17T11:09:27.030Z,1.73
2023-04-17T11:14:31.133Z,1.35
2023-04-17T11:19:35.016Z,1.92
2023-04-17T11:24:39.565Z,1.58
2023-04-17T11:29:42.339Z,1.95
2023-04-17T11:34:45.158Z,1.52
2023-04-17T11:39:47.960Z,1.80
2023-04-17T11:44:51.246Z,2.25
2023-04-17T11:49:59.712Z,2.10
2023-04-17T11:55:03.141Z,1.50
2023-04-17T12:00:16.526Z,1.70
2023-04-17T12:05:19.817Z,1.50
2023-04-17T12:10:22.796Z,1.50
2023-04-17T12:15:26.404Z,1.58
2023-04-17T12:20:29.547Z,1.63
2023-04-17T12:25:33.091Z,1.83
2023-04-17T12:31:08.268Z,1.48
2023-04-17T12:36:11.531Z,2.13
2023-04-17T12:41:14.357Z,2.78
2023-04-17T12:46:17.593Z,2.60
2023-04-17T12:56:24.202Z,2.13
2023-04-17T13:01:27.623Z,2.10
2023-04-17T13:06:30.643Z,1.95
2023-04-17T13:11:33.335Z,1.65
2023-04-17T13:16:36.254Z,1.52
2023-04-17T13:21:39.043Z,1.70
2023-04-17T13:26:42.971Z,1.80
2023-04-17T13:31:45.745Z,2.00
2023-04-17T13:36:48.573Z,1.83
2023-04-17T13:41:51.241Z,2.03
2023-04-17T13:46:59.281Z,2.00
2023-04-17T13:52:02.070Z,2.47
2023-04-17T13:57:05.286Z,2.00
2023-04-17T14:02:08.024Z,1.92
2023-04-17T14:07:13.039Z,2.00
2023-04-17T14:12:20.890Z,1.27
2023-04-17T14:17:23.595Z,1.60
2023-04-17T14:22:26.557Z,1.98
2023-04-17T14:27:29.250Z,2.28
2023-04-17T14:32:32.031Z,2.45
2023-04-17T14:37:34.850Z,2.05
2023-04-17T14:42:51.254Z,2.10
2023-04-17T14:47:57.031Z,2.50
2023-04-17T14:52:59.845Z,2.70
2023-04-17T14:58:02.549Z,2.38
2023-04-17T15:03:05.643Z,2.40
2023-04-17T15:08:08.515Z,2.70
2023-04-17T15:13:11.367Z,2.50
2023-04-17T15:18:14.133Z,1.85
2023-04-17T15:23:17.991Z,2.03
2023-04-17T15:28:21.140Z,2.10
2023-04-17T15:33:23.980Z,1.90
2023-04-17T15:38:27.143Z,1.80
2023-04-17T15:43:29.860Z,2.10
2023-04-17T15:48:32.680Z,2.00
2023-04-17T15:53:35.276Z,1.92
2023-04-17T15:58:52.778Z,2.05
2023-04-17T16:03:55.727Z,1.75
2023-04-17T16:08:58.833Z,2.20
2023-04-17T16:14:01.638Z,2.72
2023-04-17T16:19:04.401Z,2.63
2023-04-17T16:24:07.354Z,2.47
2023-04-17T16:29:10.526Z,2.83
2023-04-17T16:34:14.658Z,3.15
2023-04-17T16:39:17.460Z,4.60
2023-04-17T16:44:20.419Z,4.15
2023-04-17T16:49:23.174Z,5.63
2023-04-17T16:54:26.489Z,6.03
2023-04-17T16:59:29.070Z,6.38
2023-04-17T17:04:31.980Z,7.15
2023-04-17T17:09:34.644Z,8.25
2023-04-17T17:14:37.462Z,9.57
2023-04-17T17:19:40.245Z,8.55
2023-04-17T17:24:42.854Z,8.38
2023-04-17T17:29:45.586Z,9.43
2023-04-17T17:34:48.245Z,9.90
2023-04-17T17:39:51.076Z,7.07
2023-04-17T17:44:53.732Z,4.47
2023-04-17T17:49:56.829Z,3.08
2023-04-17T17:54:59.560Z,2.40
2023-04-17T18:00:02.558Z,1.70
2023-04-17T18:05:07.572Z,1.52
2023-04-17T18:10:10.736Z,2.38
2023-04-17T18:15:13.411Z,1.75
2023-04-17T18:20:16.113Z,1.83
2023-04-17T18:25:18.907Z,1.23
2023-04-17T18:30:22.550Z,1.38
2023-04-17T18:35:25.583Z,1.85
2023-04-17T18:40:28.304Z,1.80
2023-04-17T18:45:31.048Z,1.30
2023-04-17T18:50:33.694Z,1.50
2023-04-17T18:55:40.110Z,1.30
2023-04-17T19:00:43.048Z,0.90
2023-04-17T19:05:45.910Z,1.15
2023-04-17T19:10:48.755Z,1.42
2023-04-17T19:15:51.629Z,1.05
2023-04-17T19:20:54.523Z,1.20
2023-04-17T19:25:58.175Z,1.20
2023-04-17T19:31:01.202Z,0.80
2023-04-17T19:36:03.830Z,1.40
2023-04-17T19:41:18.163Z,1.40
2023-04-17T19:46:21.571Z,1.10
2023-04-17T19:51:24.371Z,1.00
2023-04-17T19:56:27.138Z,1.10
2023-04-17T20:01:32.985Z,1.02
2023-04-17T20:06:35.622Z,1.50
2023-04-17T20:11:38.250Z,1.77
2023-04-17T20:16:41.532Z,1.40
2023-04-17T20:21:44.492Z,2.03
2023-04-17T20:26:47.091Z,1.92
2023-04-17T20:31:49.635Z,1.80
2023-04-17T20:36:52.254Z,1.63
2023-04-17T20:41:54.947Z,1.10
2023-04-17T20:46:57.695Z,1.58
2023-04-17T20:52:00.451Z,0.80
2023-04-17T20:57:02.909Z,0.90
2023-04-17T21:02:06.135Z,1.08
2023-04-17T21:07:09.125Z,0.82
2023-04-17T21:12:11.874Z,0.90
2023-04-17T21:17:14.642Z,0.95
2023-04-17T21:22:17.777Z,0.82
2023-04-17T21:27:20.764Z,1.00
2023-04-17T21:32:23.547Z,0.90
2023-04-17T21:37:26.311Z,1.00
2023-04-17T21:42:29.057Z,0.90
2023-04-17T21:47:31.923Z,1.00
2023-04-17T21:52:34.725Z,0.90
2023-04-17T21:57:37.706Z,0.82
2023-04-17T22:02:40.584Z,1.02
2023-04-17T22:07:53.546Z,1.58
2023-04-17T22:12:57.376Z,0.80
2023-04-17T22:18:00.405Z,1.10
2023-04-17T22:23:03.120Z,1.10
2023-04-17T22:28:05.820Z,1.35
2023-04-17T22:33:08.894Z,1.35
2023-04-17T22:38:12.231Z,1.20
2023-04-17T22:43:15.933Z,1.30
2023-04-17T22:48:18.726Z,1.17
2023-04-17T22:53:22.841Z,1.00
2023-04-17T22:58:25.612Z,1.25
2023-04-17T23:03:28.929Z,1.80
2023-04-17T23:08:31.627Z,1.42
2023-04-17T23:13:34.366Z,1.35
2023-04-17T23:18:39.764Z,1.60
2023-04-17T23:23:42.360Z,1.20
2023-04-17T23:28:45.095Z,1.50
2023-04-17T23:33:47.997Z,1.40
2023-04-17T23:38:50.857Z,1.48
2023-04-17T23:43:56.432Z,1.40
2023-04-17T23:48:59.224Z,1.70
2023-04-17T23:54:02.298Z,1.48
2023-04-17T23:59:05.311Z,1.55
